createdAt,value
2022-10-12T00:00:08.942Z,65692.81
2022-10-12T00:05:41.053Z,65665.13
2022-10-12T00:10:45.675Z,65753.78
2022-10-12T00:15:49.609Z,65787.88
2022-10-12T00:21:03.163Z,65729.03
2022-10-12T00:26:09.578Z,65726.66
2022-10-12T00:31:15.357Z,65813.56
2022-10-12T00:36:22.857Z,65749.75
2022-10-12T00:41:28.927Z,65744.25
2022-10-12T00:46:37.255Z,65795.91
2022-10-12T00:51:45.188Z,65845.72
2022-10-12T00:56:49.905Z,65786.91
2022-10-12T01:01:53.663Z,65832.25
2022-10-12T01:06:59.019Z,65770.97
2022-10-12T01:12:06.910Z,65784.22
2022-10-12T01:17:23.052Z,65821.22
2022-10-12T01:22:30.082Z,65819.50
2022-10-12T01:27:47.656Z,65887.31
2022-10-12T01:33:09.386Z,65891.59
2022-10-12T01:38:29.801Z,65846.16
2022-10-12T01:43:39.605Z,65931.88
2022-10-12T01:48:47.288Z,65915.22
2022-10-12T01:53:58.422Z,65806.59
2022-10-12T01:59:10.060Z,65775.50
2022-10-12T02:04:22.769Z,65710.63
2022-10-12T02:09:29.562Z,65899.63
2022-10-12T02:14:39.610Z,65857.91
2022-10-12T02:19:49.908Z,65804.91
2022-10-12T02:24:57.605Z,65848.81
2022-10-12T02:30:01.581Z,65860.50
2022-10-12T02:35:14.316Z,65881.63
2022-10-12T02:40:25.127Z,65874.59
2022-10-12T02:45:30.205Z,65814.28
2022-10-12T02:50:35.945Z,65819.09
2022-10-12T02:55:40.374Z,65867.72
2022-10-12T03:00:44.212Z,65856.94
2022-10-12T03:05:49.312Z,65864.06
2022-10-12T03:10:53.181Z,65860.13
2022-10-12T03:16:02.807Z,65809.34
2022-10-12T03:21:08.108Z,65769.19
2022-10-12T03:26:11.929Z,65781.47
2022-10-12T03:31:15.801Z,65731.88
2022-10-12T03:36:20.854Z,65770.78
2022-10-12T03:41:24.641Z,65725.38
2022-10-12T03:46:30.851Z,65790.66
2022-10-12T03:51:35.979Z,65800.28
2022-10-12T03:56:39.894Z,65804.47
2022-10-12T04:01:43.608Z,65808.94
2022-10-12T04:06:48.780Z,65778.78
2022-10-12T04:11:52.554Z,65784.75
2022-10-12T04:16:56.317Z,65770.25
2022-10-12T04:22:01.474Z,65778.47
2022-10-12T04:27:05.266Z,65718.44
2022-10-12T04:32:12.491Z,65739.38
2022-10-12T04:37:17.934Z,65767.78
2022-10-12T04:42:21.647Z,65771.84
2022-10-12T04:47:25.527Z,65817.72
2022-10-12T04:52:30.609Z,65839.41
2022-10-12T04:57:34.463Z,65822.09
2022-10-12T05:02:38.362Z,65829.78
2022-10-12T05:07:43.478Z,65851.03
2022-10-12T05:12:47.362Z,65803.50
2022-10-12T05:17:51.512Z,65800.81
2022-10-12T05:22:58.235Z,65829.66
2022-10-12T05:28:02.267Z,65882.78
2022-10-12T05:33:06.468Z,65922.69
2022-10-12T05:38:12.088Z,65947.75
2022-10-12T05:43:15.850Z,65960.16
2022-10-12T05:48:19.703Z,65923.88
2022-10-12T05:53:24.941Z,65944.63
2022-10-12T05:58:30.173Z,65960.69
2022-10-12T06:03:35.192Z,65959.53
2022-10-12T06:08:40.787Z,66028.13
2022-10-12T06:13:45.361Z,66123.34
2022-10-12T06:18:50.427Z,65985.81
2022-10-12T06:23:55.666Z,66130.41
2022-10-12T06:29:01.489Z,66133.28
2022-10-12T06:34:07.258Z,66150.88
2022-10-12T06:39:13.925Z,66196.34
2022-10-12T06:44:17.667Z,66164.19
2022-10-12T06:49:21.567Z,66237.06
2022-10-12T06:54:26.856Z,66203.81
2022-10-12T06:59:30.694Z,66188.81
2022-10-12T07:04:34.726Z,66307.97
2022-10-12T07:09:39.979Z,66246.75
2022-10-12T07:14:43.785Z,66224.38
2022-10-12T07:19:47.710Z,66266.66
2022-10-12T07:24:53.077Z,66263.34
2022-10-12T07:29:57.440Z,66276.06
2022-10-12T07:35:01.355Z,66366.44
2022-10-12T07:40:08.047Z,66434.56
2022-10-12T07:45:12.157Z,66465.25
2022-10-12T07:50:16.130Z,66441.09
2022-10-12T07:55:23.800Z,66446.91
2022-10-12T08:00:27.742Z,66491.03
2022-10-12T08:05:31.794Z,66513.06
2022-10-12T08:10:38.306Z,66587.06
2022-10-12T08:15:42.217Z,66545.84
2022-10-12T08:20:46.067Z,66589.91
2022-10-12T08:25:55.759Z,66601.66
2022-10-12T08:30:59.749Z,66613.94
2022-10-12T08:36:05.246Z,66642.69
2022-10-12T08:41:24.782Z,66711.47
2022-10-12T08:46:30.459Z,66693.19
2022-10-12T08:51:45.315Z,66753.34
2022-10-12T08:56:54.803Z,66753.88
2022-10-12T09:02:06.607Z,66747.44
2022-10-12T09:07:17.045Z,66828.81
2022-10-12T09:12:34.745Z,66833.59
2022-10-12T09:17:43.606Z,66823.91
2022-10-12T09:22:50.945Z,66698.41
2022-10-12T09:28:07.526Z,66733.59
2022-10-12T09:33:19.939Z,66675.34
2022-10-12T09:38:24.586Z,66797.03
2022-10-12T09:43:29.940Z,66770.13
2022-10-12T09:48:33.756Z,66793.72
2022-10-12T09:53:44.636Z,66732.91
2022-10-12T09:58:54.826Z,66721.16
2022-10-12T10:04:15.146Z,66677.00
2022-10-12T10:09:30.587Z,66760.97
2022-10-12T10:14:37.136Z,66790.44
2022-10-12T10:19:41.276Z,66743.81
2022-10-12T10:24:50.977Z,66726.53
2022-10-12T10:30:25.501Z,66625.84
2022-10-12T10:35:33.302Z,66666.25
2022-10-12T10:40:37.265Z,66708.31
2022-10-12T10:51:00.425Z,66738.28
2022-10-12T10:56:09.444Z,66806.13
2022-10-12T11:01:23.866Z,66847.59
2022-10-12T11:06:38.358Z,66773.91
2022-10-12T11:11:44.978Z,66979.59
2022-10-12T11:16:54.228Z,66883.75
2022-10-12T11:22:02.300Z,66863.81
2022-10-12T11:27:12.493Z,66828.22
2022-10-12T11:32:26.713Z,66982.28
2022-10-12T11:37:39.647Z,66934.41
2022-10-12T11:42:43.922Z,67070.28
2022-10-12T11:47:53.409Z,67325.22
2022-10-12T11:52:59.477Z,67386.63
2022-10-12T11:58:13.735Z,67259.13
2022-10-12T12:03:27.645Z,67420.78
2022-10-12T12:08:59.039Z,67572.22
2022-10-12T12:14:35.984Z,67668.53
2022-10-12T12:19:43.382Z,67475.38
2022-10-12T12:25:04.294Z,67127.31
2022-10-12T12:30:28.944Z,67004.47
2022-10-12T12:35:38.912Z,66941.41
2022-10-12T12:40:55.097Z,67007.63
2022-10-12T12:46:00.792Z,66949.97
2022-10-12T12:51:08.668Z,66936.56
2022-10-12T12:56:20.783Z,66936.03
2022-10-12T13:01:45.403Z,67006.78
2022-10-12T13:07:39.819Z,67175.50
2022-10-12T13:13:25.746Z,67381.78
2022-10-12T13:18:49.844Z,67332.66
2022-10-12T13:24:05.895Z,67448.97
2022-10-12T13:29:22.787Z,67365.09
2022-10-12T13:34:32.621Z,67237.06
2022-10-12T13:39:40.913Z,67206.75
2022-10-12T13:44:48.865Z,67335.38
2022-10-12T13:49:54.848Z,67399.69
2022-10-12T13:54:59.384Z,67328.34
2022-10-12T14:00:13.520Z,67370.00
2022-10-12T14:05:19.866Z,67286.78
2022-10-12T14:10:41.732Z,67168.41
2022-10-12T14:15:47.857Z,67205.25
2022-10-12T14:21:12.929Z,67181.44
2022-10-12T14:26:37.045Z,67283.50
2022-10-12T14:31:53.654Z,67214.31
2022-10-12T14:37:05.972Z,67243.41
2022-10-12T14:42:26.022Z,67185.16
2022-10-12T14:47:48.094Z,67171.66
2022-10-12T14:53:08.396Z,67129.00
2022-10-12T14:58:25.922Z,67100.41
2022-10-12T15:03:33.103Z,67009.41
2022-10-12T15:08:46.816Z,67022.72
2022-10-12T15:13:52.993Z,66956.50
2022-10-12T15:19:02.748Z,66933.41
2022-10-12T15:24:16.524Z,66884.22
2022-10-12T15:29:23.199Z,66782.41
2022-10-12T15:34:30.508Z,66776.03
2022-10-12T15:39:37.494Z,66747.44
2022-10-12T15:44:45.265Z,66688.78
2022-10-12T15:49:53.057Z,66638.84
2022-10-12T15:55:05.758Z,66624.16
2022-10-12T16:00:16.725Z,66584.09
2022-10-12T16:05:26.051Z,66603.34
2022-10-12T16:10:43.043Z,66571.03
2022-10-12T16:15:48.926Z,66530.69
2022-10-12T16:20:57.527Z,66493.78
2022-10-12T16:26:04.486Z,66464.09
2022-10-12T16:31:12.430Z,66459.25
2022-10-12T16:36:18.531Z,66424.34
2022-10-12T16:41:22.533Z,66418.97
2022-10-12T16:46:26.559Z,66331.03
2022-10-12T16:51:31.953Z,66183.03
2022-10-12T16:56:39.404Z,66138.28
2022-10-12T17:01:44.193Z,66112.84
2022-10-12T17:06:49.762Z,66105.97
2022-10-12T17:11:53.567Z,66048.66
2022-10-12T17:16:58.045Z,66055.53
2022-10-12T17:22:06.593Z,66011.44
2022-10-12T17:27:14.606Z,66132.56
2022-10-12T17:32:19.108Z,66034.00
2022-10-12T17:37:25.089Z,65978.88
2022-10-12T17:42:29.639Z,65990.22
2022-10-12T17:47:33.577Z,66023.91
2022-10-12T17:52:48.003Z,66100.97
2022-10-12T17:57:52.101Z,65985.94
2022-10-12T18:02:55.990Z,65875.75
2022-10-12T18:08:01.253Z,65987.88
2022-10-12T18:13:05.214Z,65985.94
2022-10-12T18:18:14.276Z,65972.66
2022-10-12T18:23:21.156Z,65906.13
2022-10-12T18:28:25.156Z,65872.97
2022-10-12T18:33:30.231Z,65860.34
2022-10-12T18:38:35.570Z,65827.00
2022-10-12T18:43:39.761Z,65839.41
2022-10-12T18:48:43.961Z,65842.59
2022-10-12T18:53:49.510Z,65829.59
2022-10-12T18:58:54.187Z,65793.88
2022-10-12T19:04:00.197Z,65818.44
2022-10-12T19:09:06.023Z,65809.47
2022-10-12T19:14:14.215Z,65821.22
2022-10-12T19:19:21.378Z,65905.69
2022-10-12T19:24:27.201Z,65859.16
2022-10-12T19:29:31.412Z,65877.69
2022-10-12T19:34:35.304Z,65827.00
2022-10-12T19:39:44.743Z,65792.28
2022-10-12T19:44:49.004Z,65872.53
2022-10-12T19:49:56.456Z,65947.50
2022-10-12T19:55:01.843Z,65904.00
2022-10-12T20:00:08.783Z,65887.94
2022-10-12T20:05:16.655Z,65798.78
2022-10-12T20:10:22.138Z,65861.84
2022-10-12T20:15:26.118Z,65878.41
2022-10-12T20:20:30.157Z,65979.41
2022-10-12T20:25:35.591Z,65796.91
2022-10-12T20:30:39.932Z,65736.16
2022-10-12T20:35:48.132Z,65786.38
2022-10-12T20:41:02.605Z,65829.66
2022-10-12T20:46:08.255Z,65865.50
2022-10-12T20:51:17.922Z,65849.53
2022-10-12T20:56:23.159Z,65861.19
2022-10-12T21:01:28.400Z,65770.78
2022-10-12T21:06:32.750Z,65814.50
2022-10-12T21:11:38.496Z,65842.94
2022-10-12T21:16:42.908Z,65908.88
2022-10-12T21:21:47.530Z,65966.47
2022-10-12T21:26:53.356Z,65985.41
2022-10-12T21:31:57.556Z,65958.72
2022-10-12T21:37:01.489Z,65904.00
2022-10-12T21:42:07.129Z,65956.41
2022-10-12T21:47:17.303Z,65842.41
2022-10-12T21:52:21.995Z,65774.09
2022-10-12T21:57:28.807Z,65792.28
2022-10-12T22:02:32.631Z,65801.44
2022-10-12T22:07:36.538Z,65721.00
2022-10-12T22:12:41.832Z,65783.16
2022-10-12T22:17:45.699Z,65796.34
2022-10-12T22:22:49.531Z,65695.03
2022-10-12T22:27:54.926Z,65706.34
2022-10-12T22:32:58.680Z,65698.13
2022-10-12T22:38:02.524Z,65796.19
2022-10-12T22:43:07.610Z,65821.66
2022-10-12T22:48:11.264Z,65838.56
2022-10-12T22:53:16.144Z,65855.25
2022-10-12T22:58:21.496Z,65820.56
2022-10-12T23:03:25.304Z,65677.84
2022-10-12T23:08:29.906Z,65694.41
2022-10-12T23:13:40.766Z,65758.03
2022-10-12T23:18:44.695Z,65682.75
2022-10-12T23:23:48.546Z,65662.56
2022-10-12T23:28:54.546Z,65713.72
2022-10-12T23:33:59.232Z,65736.69
2022-10-12T23:39:05.737Z,65708.41
2022-10-12T23:44:11.355Z,65718.09
2022-10-12T23:49:15.065Z,65696.53
2022-10-12T23:54:18.980Z,65613.91
2022-10-12T23:59:24.865Z,65597.91
